Detalii statie SADELLI PRODCOM [00001D03]

Toti senzorii

Date Temperatura solului [C]Precipitatii [mm]Voltaj baterie [mV]Leaf Wetness [Min]HC Air temperature [C]HC Relative humidity [%]Punctul de roua [C]
medieminmaxsumaultimatimpmedieminmaxmediemediemin
2019-10-19 22:00:00 16.6 16.4 17 0 6776 13.84 13.57 14.29 0 0 0
2019-10-19 23:00:00 16 15.9 16.4 0 6766 13.56 13.16 14.03 0 0 0
2019-10-20 00:00:00 15.6 15.3 15.9 0 6756 13.47 12.97 13.86 0 0 0
2019-10-20 01:00:00 15.2 15.1 15.5 0 6738 12.78 12.66 12.94 0 0 0
2019-10-20 02:00:00 14.8 14.5 15 0 6738 12.79 12.66 12.98 0 0 0
2019-10-20 03:00:00 14.5 14.4 14.6 0 6728 12.49 12.2 12.8 0 0 0
2019-10-20 04:00:00 14.2 14.1 14.4 0 6718 12.27 12.1 12.45 0 0 0
2019-10-20 05:00:00 13.9 13.8 14.1 0 6708 11.76 11.49 11.96 0 0 0
2019-10-20 06:00:00 13.6 13.5 13.9 0 6698 11.42 11.15 11.56 0 0 0
2019-10-20 07:00:00 13.4 13.3 13.6 0 6698 11.19 11.12 11.24 0 0 0
2019-10-20 08:00:00 13.1 13.1 13.4 0 6688 11.47 11.2 11.93 0 0 0
2019-10-20 09:00:00 13 13 13.2 0 6748 12.52 12.06 13.46 0 0 0
2019-10-20 10:00:00 13.1 13.1 13.5 0 7138 15.73 13.82 17.44 0 0 0
2019-10-20 11:00:00 14 13.4 14.7 0 7196 19.42 17.84 21.16 0 0 0
2019-10-20 12:00:00 15.6 14.8 16.4 0 7196 22.47 21.38 23.25 0 0 0
2019-10-20 13:00:00 17.4 16.6 18.1 0 7196 23.63 23.13 24.39 0 0 0
2019-10-20 14:00:00 18.8 18.2 19.4 0 7196 24.96 24.49 25.78 0 0 0
2019-10-20 15:00:00 19.9 19.4 20.3 0 7196 25.63 25.08 26.11 29.25 6 3.6
2019-10-20 16:00:00 20.5 20.2 20.7 0 7196 25.7 25.42 25.88 33.88 8.3 6.8
2019-10-20 17:00:00 20.6 20.5 20.8 0 7186 25.66 25.52 25.92 35.59 9 6.7
2019-10-20 18:00:00 20.2 19.8 20.6 0 7176 24.61 23.54 25.36 35.64 8 6.8
2019-10-20 19:00:00 19.3 18.9 19.8 0 6796 21.48 19.65 23.25 41.64 7.7 6.7
2019-10-20 20:00:00 18.3 18 18.8 0 6786 18.73 17.26 19.54 31.52 2.5 0
2019-10-20 21:00:00 17.4 17 17.9 0 6786 16.05 15 17 0 0 0
2019-10-20 22:00:00 16.8 16.6 17.1 0 6776 14.19 13.63 14.8 0 0 0
2019-10-20 23:00:00 16.2 16 16.5 0 6766 13.3 13.14 13.56 0 0 0
2019-10-21 00:00:00 15.7 15.5 15.9 0 6756 14.19 13.65 14.69 0 0 0
2019-10-21 01:00:00 15.3 15.2 15.6 0 6756 14.57 14.3 14.75 0 0 0
2019-10-21 02:00:00 15.1 15 15.4 0 6748 13.59 13.02 14.23 0 0 0
2019-10-21 03:00:00 14.7 14.6 14.9 0 6738 13.95 13.9 14.03 0 0 0
2019-10-21 04:00:00 14.4 14.3 14.7 0 6728 13.8 12.95 14.15 0 0 0
2019-10-21 05:00:00 14.2 14 14.4 0 6728 11.96 11.63 12.49 0 0 0
2019-10-21 06:00:00 13.9 13.8 14.1 0 6708 11.46 11.27 11.75 0 0 0
2019-10-21 07:00:00 13.6 13.4 13.8 0 6708 11.13 10.89 11.33 0 0 0
2019-10-21 08:00:00 13.4 13.3 13.5 0 6698 11.45 10.91 12 0 0 0
2019-10-21 09:00:00 13.2 13 13.4 0 6738 12.41 11.37 13.69 0 0 0
2019-10-21 10:00:00 13.3 13.2 13.6 0 7118 16.28 14 18.32 0 0 0
2019-10-21 11:00:00 14.2 13.6 15.1 0 7196 20.86 18.78 22.42 0 0 0
2019-10-21 12:00:00 15.9 15 16.9 0 7196 22.69 22.06 23.62 0 0 0
2019-10-21 13:00:00 17.7 17 18.4 0 7196 24.31 23.91 24.81 60.46 15.7 0
2019-10-21 14:00:00 19 18.5 19.7 0 7196 25.04 24.56 25.36 62.85 17.1 13.2
2019-10-21 15:00:00 20.1 19.7 20.6 0 7196 25.6 24.96 26.09 62.52 17.6 13.8
2019-10-21 16:00:00 20.6 20.5 20.8 0 7196 26.05 25.82 26.36 51.42 14.8 9.5
2019-10-21 17:00:00 20.8 20.6 21 0 7196 25.75 25.52 26.02 55.41 15.7 10.4
2019-10-21 18:00:00 20.3 20 20.7 0 6942 24.58 23.1 25.56 56.01 15 11.5
2019-10-21 19:00:00 19.3 18.9 19.8 0 6766 21.11 19.65 22.59 60.49 12.8 8.8
2019-10-21 20:00:00 18.4 18 18.8 0 6786 18.05 16.62 19.28 21.56 0
2019-10-21 21:00:00 17.6 17.4 18 0 6776 15.91 15.33 16.59 0 0 0